Airfield :
LOGIN :

Register | Disclaimer

   EN    FR    IT 

 










Legend :    VFR   Marginal VFR   IFR   Intensive IFR   Very Intensive IFR
Visi :
Ceiling :
>= 8 km
>= 3000ft
5 to 8 km
1000 to 3000 ft
1500m to 5 km
500 to 1000 ft
800 to 1500m
200 to 500 ft
< 800m
< 200 ft
Symbols :   Thunderstorms  Fog  Heavy snow  Heavy precipitations  Wind > 20 kt
SIGMETs :     Misc.  Thunderstorms  Icing  Turbulence  Mountain Waves  Volcanic Ashes






- Airport Elevation : 461 ft
- IATA code : WIE


ETOU - Wiesbaden Army

CURRENT METAR :
  • 111456Z AUTO 13010KT 9999 SCT080 SCT100 BKN160 36/14 A2994 RMK AO2 SLP131 T03560137 57017 $

EXPIRED METARs :
  • 111356Z AUTO 00000KT 9999 CLR 35/14 A2995 RMK AO2 LTG DSNT SE SLP135 T03480136 $
  • 111256Z AUTO 11006KT 9999 CLR 35/15 A2997 RMK AO2 SLP142 T03460145 $

TAF TAF ETOU
Valid from the 11 at 12:00 until the 12 at 18:00 UTC


111207Z 1112/1218 09010G15KT 9999 BKN100 QNH2999INS
TEMPO 1114/1118 VRB15G25KT VCTS SCT060CB BKN100
BECMG 1118/1119 05006KT 8000 -SHRA SCT040 BKN120 QNH2998INS
BECMG 1202/1203 06006KT 9999 NSW FEW040 SCT110 QNH3003INS
BECMG 1213/1214 12012G18KT 9999 VCTS BKN060CB QNH3000INS TX36/1115Z TN25/1204Z



MET'MAP, your aeronautical weather chart ! - Copyright ORBIFLY December 2007 - Disclaimer

ORBIFLY MET'MAP TEAM :

Programming & Development : Alexandra Zaïnal
Concept & original design : Baudouin d'Aumeries
Assistance for programming : Marc-Olivier Méhu
Technical & hardware support : Manuel Goepfert

Contact : metmap@orbifly.com




SOURCES & CREDITS :

   NOAA